createdAt,value
2022-12-26T00:00:44.195Z,10.13
2022-12-26T00:03:10.584Z,10.05
2022-12-26T00:05:36.973Z,10.02
2022-12-26T00:08:03.253Z,10.05
2022-12-26T00:10:29.513Z,10.10
2022-12-26T00:12:55.773Z,10.18
2022-12-26T00:15:41.988Z,10.26
2022-12-26T00:18:08.256Z,10.33
2022-12-26T00:20:34.522Z,10.46
2022-12-26T00:23:00.773Z,10.42
2022-12-26T00:25:27.031Z,10.36
2022-12-26T00:27:53.304Z,10.39
2022-12-26T00:30:19.544Z,10.39
2022-12-26T00:32:45.789Z,10.38
2022-12-26T00:35:12.036Z,10.44
2022-12-26T00:37:38.292Z,10.47
2022-12-26T00:40:04.561Z,10.51
2022-12-26T00:42:30.822Z,10.44
2022-12-26T00:44:57.084Z,10.39
2022-12-26T00:47:23.337Z,10.45
2022-12-26T00:50:13.482Z,10.51
2022-12-26T00:52:35.805Z,10.47
2022-12-26T00:55:02.046Z,10.51
2022-12-26T00:57:28.317Z,10.59
2022-12-26T00:59:54.561Z,10.57
2022-12-26T01:02:20.994Z,10.64
2022-12-26T01:04:47.348Z,10.58
2022-12-26T01:07:13.607Z,10.52
2022-12-26T01:09:39.861Z,10.47
2022-12-26T01:12:06.109Z,10.29
2022-12-26T01:14:32.367Z,10.23
2022-12-26T01:16:58.743Z,10.21
2022-12-26T01:19:25.067Z,10.26
2022-12-26T01:21:51.314Z,10.20
2022-12-26T01:24:17.577Z,10.35
2022-12-26T01:26:43.837Z,10.32
2022-12-26T01:29:10.111Z,10.40
2022-12-26T01:31:36.447Z,10.46
2022-12-26T01:34:02.769Z,10.43
2022-12-26T01:36:29.134Z,10.41
2022-12-26T01:38:55.387Z,10.22
2022-12-26T01:41:21.675Z,10.25
2022-12-26T01:43:47.948Z,10.22
2022-12-26T01:46:14.269Z,10.17
2022-12-26T01:48:40.586Z,10.14
2022-12-26T01:51:06.831Z,10.02
2022-12-26T01:53:33.075Z,9.90
2022-12-26T01:55:59.312Z,9.96
2022-12-26T01:58:25.577Z,10.09
2022-12-26T02:00:51.888Z,10.04
2022-12-26T02:03:18.231Z,10.05
2022-12-26T02:05:44.534Z,10.05
2022-12-26T02:08:10.781Z,10.12
2022-12-26T02:10:37.052Z,9.97
2022-12-26T02:13:03.346Z,9.88
2022-12-26T02:15:29.589Z,9.96
2022-12-26T02:17:55.856Z,9.99
2022-12-26T02:20:22.121Z,10.19
2022-12-26T02:22:48.369Z,10.33
2022-12-26T02:25:14.609Z,10.29
2022-12-26T02:27:40.951Z,10.32
2022-12-26T02:30:07.201Z,10.27
2022-12-26T02:32:33.440Z,10.17
2022-12-26T02:34:59.692Z,10.13
2022-12-26T02:37:25.962Z,10.08
2022-12-26T02:39:52.209Z,10.13
2022-12-26T02:42:18.479Z,10.26
2022-12-26T02:44:44.743Z,10.31
2022-12-26T02:47:10.982Z,10.35
2022-12-26T02:49:37.228Z,10.24
2022-12-26T02:52:03.492Z,10.19
2022-12-26T02:54:29.732Z,10.16
2022-12-26T02:56:56.004Z,10.20
2022-12-26T02:59:56.174Z,10.13
2022-12-26T03:02:08.581Z,10.28
2022-12-26T03:04:34.975Z,10.30
2022-12-26T03:07:01.218Z,10.36
2022-12-26T03:09:27.459Z,10.37
2022-12-26T03:11:53.736Z,10.46
2022-12-26T03:14:19.993Z,10.39
2022-12-26T03:16:46.350Z,10.45
2022-12-26T03:19:12.604Z,10.48
2022-12-26T03:21:38.867Z,10.47
2022-12-26T03:24:05.137Z,10.48
2022-12-26T03:26:31.417Z,10.56
2022-12-26T03:28:57.666Z,10.53
2022-12-26T03:31:23.990Z,10.60
2022-12-26T03:33:50.310Z,10.59
2022-12-26T03:36:16.568Z,10.54
2022-12-26T03:38:42.811Z,10.53
2022-12-26T03:41:09.064Z,10.49
2022-12-26T03:43:35.350Z,10.62
2022-12-26T03:46:01.678Z,10.66
2022-12-26T03:48:27.945Z,10.67
2022-12-26T03:50:54.192Z,10.64
2022-12-26T03:53:20.449Z,10.64
2022-12-26T03:55:46.697Z,10.64
2022-12-26T03:58:12.938Z,10.63
2022-12-26T04:00:39.203Z,10.69
2022-12-26T04:03:05.504Z,10.70
2022-12-26T04:05:31.776Z,10.71
2022-12-26T04:07:58.624Z,10.82
2022-12-26T04:10:25.046Z,10.80
2022-12-26T04:12:51.308Z,10.82
2022-12-26T04:15:17.555Z,10.86
2022-12-26T04:17:43.821Z,10.93
2022-12-26T04:20:10.071Z,10.90
2022-12-26T04:22:36.328Z,10.90
2022-12-26T04:25:02.603Z,10.85
2022-12-26T04:27:28.870Z,11.03
2022-12-26T04:29:55.125Z,10.89
2022-12-26T04:32:21.361Z,10.89
2022-12-26T04:34:47.606Z,10.94
2022-12-26T04:37:13.883Z,10.93
2022-12-26T04:39:40.147Z,10.98
2022-12-26T04:42:06.402Z,10.97
2022-12-26T04:44:32.649Z,10.97
2022-12-26T04:46:59.040Z,10.98
2022-12-26T04:49:25.359Z,11.02
2022-12-26T04:51:51.611Z,11.09
2022-12-26T04:54:17.860Z,11.04
2022-12-26T04:56:44.126Z,11.02
2022-12-26T04:59:10.387Z,11.03
2022-12-26T05:01:36.702Z,11.06
2022-12-26T05:04:03.079Z,11.06
2022-12-26T05:06:29.399Z,11.09
2022-12-26T05:08:55.657Z,11.15
2022-12-26T05:11:21.917Z,11.17
2022-12-26T05:13:48.204Z,11.13
2022-12-26T05:16:15.579Z,11.13
2022-12-26T05:18:41.864Z,11.13
2022-12-26T05:21:08.119Z,11.17
2022-12-26T05:23:34.379Z,11.18
2022-12-26T05:26:00.616Z,11.21
2022-12-26T05:28:27.091Z,11.23
2022-12-26T05:30:53.369Z,11.17
2022-12-26T05:33:19.678Z,11.20
2022-12-26T05:35:46.041Z,11.21
2022-12-26T05:38:12.293Z,11.27
2022-12-26T05:40:38.550Z,11.14
2022-12-26T05:43:04.821Z,11.27
2022-12-26T05:45:31.093Z,11.20
2022-12-26T05:47:57.365Z,11.14
2022-12-26T05:50:23.609Z,11.17
2022-12-26T05:52:49.862Z,11.16
2022-12-26T05:55:16.119Z,11.11
2022-12-26T05:57:42.376Z,11.15
2022-12-26T06:00:08.638Z,11.07
2022-12-26T06:02:35.027Z,11.16
2022-12-26T06:05:01.407Z,11.19
2022-12-26T06:07:27.660Z,11.17
2022-12-26T06:09:53.912Z,11.20
2022-12-26T06:12:20.164Z,11.09
2022-12-26T06:14:46.414Z,11.04
2022-12-26T06:17:12.670Z,11.11
2022-12-26T06:19:44.688Z,11.02
2022-12-26T06:22:12.851Z,11.06
2022-12-26T06:24:39.132Z,11.09
2022-12-26T06:27:05.402Z,11.13
2022-12-26T06:29:31.667Z,11.09
2022-12-26T06:31:57.991Z,11.11
2022-12-26T06:34:24.300Z,11.08
2022-12-26T06:36:50.548Z,11.11
2022-12-26T06:39:16.794Z,11.13
2022-12-26T06:41:43.089Z,11.15
2022-12-26T06:44:14.433Z,11.11
2022-12-26T06:46:44.177Z,11.08
2022-12-26T06:49:10.452Z,11.01
2022-12-26T06:51:36.710Z,11.02
2022-12-26T06:54:03.012Z,11.07
2022-12-26T06:56:29.299Z,11.05
2022-12-26T06:58:55.578Z,11.08
2022-12-26T07:01:21.939Z,11.13
2022-12-26T07:03:51.667Z,11.10
2022-12-26T07:06:18.269Z,11.13
2022-12-26T07:08:44.526Z,11.14
2022-12-26T07:11:10.769Z,11.13
2022-12-26T07:13:37.041Z,11.14
2022-12-26T07:16:03.327Z,11.14
2022-12-26T07:18:29.606Z,11.17
2022-12-26T07:20:55.867Z,11.14
2022-12-26T07:23:22.135Z,11.02
2022-12-26T07:25:48.413Z,11.04
2022-12-26T07:28:14.689Z,11.11
2022-12-26T07:30:40.952Z,11.11
2022-12-26T07:33:07.246Z,11.16
2022-12-26T07:35:33.498Z,11.13
2022-12-26T07:37:59.739Z,11.18
2022-12-26T07:40:26.004Z,11.17
2022-12-26T07:42:52.263Z,11.06
2022-12-26T07:45:18.528Z,11.13
2022-12-26T07:47:44.783Z,11.10
2022-12-26T07:50:11.062Z,11.12
2022-12-26T07:52:37.335Z,11.08
2022-12-26T07:55:03.618Z,11.14
2022-12-26T07:57:48.093Z,11.16
2022-12-26T08:00:15.325Z,11.14
2022-12-26T08:02:41.806Z,11.11
2022-12-26T08:05:08.138Z,11.23
2022-12-26T08:07:34.410Z,11.19
2022-12-26T08:10:00.650Z,11.21
2022-12-26T08:12:27.296Z,11.23
2022-12-26T08:14:53.548Z,11.27
2022-12-26T08:17:19.799Z,11.23
2022-12-26T08:19:46.065Z,11.30
2022-12-26T08:22:12.301Z,11.31
2022-12-26T08:24:38.557Z,11.28
2022-12-26T08:27:04.805Z,11.29
2022-12-26T08:29:31.067Z,11.29
2022-12-26T08:31:57.314Z,11.33
2022-12-26T08:34:23.576Z,11.28
2022-12-26T08:36:50.009Z,11.32
2022-12-26T08:39:16.253Z,11.37
2022-12-26T08:41:42.516Z,11.46
2022-12-26T08:46:55.000Z,11.32
2022-12-26T08:49:21.271Z,11.36
2022-12-26T08:51:47.522Z,11.40
2022-12-26T08:54:13.779Z,11.45
2022-12-26T08:56:40.145Z,11.40
2022-12-26T08:59:06.423Z,11.42
2022-12-26T09:01:32.878Z,11.43
2022-12-26T09:03:59.189Z,11.48
2022-12-26T09:06:25.433Z,11.37
2022-12-26T09:08:51.687Z,11.31
2022-12-26T09:11:17.937Z,11.34
2022-12-26T09:13:44.199Z,11.38
2022-12-26T09:16:10.449Z,11.47
2022-12-26T09:18:36.702Z,11.45
2022-12-26T09:21:02.961Z,11.52
2022-12-26T09:23:29.234Z,11.49
2022-12-26T09:25:55.478Z,11.48
2022-12-26T09:28:21.751Z,11.42
2022-12-26T09:30:48.029Z,11.47
2022-12-26T09:33:14.303Z,11.51
2022-12-26T09:35:40.576Z,11.36
2022-12-26T09:38:06.833Z,11.29
2022-12-26T09:40:33.076Z,11.30
2022-12-26T09:42:59.318Z,11.31
2022-12-26T09:45:25.588Z,11.28
2022-12-26T09:47:51.847Z,11.31
2022-12-26T09:50:18.104Z,11.36
2022-12-26T09:52:44.373Z,11.42
2022-12-26T09:55:10.643Z,11.51
2022-12-26T09:57:37.492Z,11.45
2022-12-26T10:00:03.738Z,11.51
2022-12-26T10:02:30.027Z,11.66
2022-12-26T10:04:56.417Z,11.65
2022-12-26T10:07:22.710Z,11.72
2022-12-26T10:09:48.951Z,11.73
2022-12-26T10:12:15.205Z,11.83
2022-12-26T10:14:41.468Z,11.83
2022-12-26T10:17:07.729Z,11.92
2022-12-26T10:19:33.984Z,11.91
2022-12-26T10:22:00.229Z,11.93
2022-12-26T10:24:26.484Z,11.85
2022-12-26T10:26:52.726Z,11.92
2022-12-26T10:29:18.964Z,11.99
2022-12-26T10:31:45.206Z,11.94
2022-12-26T10:34:11.465Z,11.99
2022-12-26T10:36:37.711Z,12.04
2022-12-26T10:39:03.976Z,12.06
2022-12-26T10:41:30.241Z,11.98
2022-12-26T10:43:56.477Z,12.11
2022-12-26T10:46:22.746Z,12.12
2022-12-26T10:48:49.011Z,12.15
2022-12-26T10:51:15.269Z,12.20
2022-12-26T10:53:41.524Z,12.18
2022-12-26T10:56:09.949Z,12.19
2022-12-26T10:58:39.532Z,12.16
2022-12-26T11:01:05.818Z,12.20
2022-12-26T11:03:32.159Z,12.34
2022-12-26T11:06:13.637Z,12.27
2022-12-26T11:08:43.132Z,12.28
2022-12-26T11:11:10.216Z,12.34
2022-12-26T11:13:36.461Z,12.37
2022-12-26T11:16:02.713Z,12.32
2022-12-26T11:18:29.029Z,12.35
2022-12-26T11:20:55.285Z,12.38
2022-12-26T11:23:21.532Z,12.41
2022-12-26T11:25:47.804Z,12.39
2022-12-26T11:28:14.042Z,12.44
2022-12-26T11:30:40.293Z,12.40
2022-12-26T11:33:13.518Z,12.46
2022-12-26T11:35:40.663Z,12.48
2022-12-26T11:38:06.916Z,12.45
2022-12-26T11:40:33.157Z,12.46
2022-12-26T11:42:59.403Z,12.49
2022-12-26T11:45:25.649Z,12.51
2022-12-26T11:47:51.900Z,12.59
2022-12-26T11:50:18.151Z,12.53
2022-12-26T11:52:44.419Z,12.53
2022-12-26T11:55:10.685Z,12.52
2022-12-26T11:57:36.937Z,12.40
2022-12-26T12:00:03.214Z,12.37
2022-12-26T12:02:29.680Z,12.35
2022-12-26T12:04:56.073Z,12.38
2022-12-26T12:07:22.325Z,12.41
2022-12-26T12:09:48.590Z,12.41
2022-12-26T12:12:14.856Z,12.42
2022-12-26T12:14:41.120Z,12.47
2022-12-26T12:17:07.369Z,12.48
2022-12-26T12:19:33.651Z,12.44
2022-12-26T12:21:59.896Z,12.43
2022-12-26T12:24:26.141Z,12.42
2022-12-26T12:26:58.711Z,12.46
2022-12-26T12:29:26.414Z,12.49
2022-12-26T12:31:52.703Z,12.43
2022-12-26T12:34:18.999Z,12.49
2022-12-26T12:36:45.245Z,12.51
2022-12-26T12:39:11.516Z,12.52
2022-12-26T12:41:38.199Z,12.47
2022-12-26T12:44:04.471Z,12.50
2022-12-26T12:46:30.719Z,12.44
2022-12-26T12:48:56.980Z,12.45
2022-12-26T12:51:23.225Z,12.44
2022-12-26T12:53:49.468Z,12.44
2022-12-26T12:56:15.721Z,12.50
2022-12-26T12:58:41.967Z,12.45
2022-12-26T13:01:08.385Z,12.51
2022-12-26T13:03:34.728Z,12.51
2022-12-26T13:06:01.009Z,12.48
2022-12-26T13:08:27.318Z,12.49
2022-12-26T13:10:53.558Z,12.50
2022-12-26T13:13:19.815Z,12.46
2022-12-26T13:15:46.056Z,12.50
2022-12-26T13:18:12.317Z,12.49
2022-12-26T13:20:38.580Z,12.51
2022-12-26T13:23:04.838Z,12.56
2022-12-26T13:25:31.079Z,12.57
2022-12-26T13:27:57.317Z,12.62
2022-12-26T13:30:23.591Z,12.54
2022-12-26T13:32:49.841Z,12.41
2022-12-26T13:35:16.197Z,12.45
2022-12-26T13:37:42.429Z,12.38
2022-12-26T13:40:08.693Z,12.41
2022-12-26T13:42:34.968Z,12.46
2022-12-26T13:45:01.223Z,12.43
2022-12-26T13:47:27.484Z,12.49
2022-12-26T13:49:53.744Z,12.52
2022-12-26T13:52:20.019Z,12.50
2022-12-26T13:54:46.277Z,12.52
2022-12-26T13:57:12.514Z,12.61
2022-12-26T13:59:38.768Z,12.51
2022-12-26T14:02:07.705Z,12.58
2022-12-26T14:04:34.306Z,12.52
2022-12-26T14:07:00.587Z,12.43
2022-12-26T14:09:26.847Z,12.45
2022-12-26T14:11:53.104Z,12.44
2022-12-26T14:14:19.347Z,12.38
2022-12-26T14:16:45.679Z,12.12
2022-12-26T14:19:11.930Z,12.00
2022-12-26T14:21:38.173Z,12.06
2022-12-26T14:24:04.449Z,11.98
2022-12-26T14:26:30.720Z,11.87
2022-12-26T14:28:56.964Z,11.78
2022-12-26T14:31:23.233Z,11.75
2022-12-26T14:33:49.491Z,11.66
2022-12-26T14:36:15.753Z,11.62
2022-12-26T14:38:42.001Z,11.75
2022-12-26T14:41:08.314Z,11.79
2022-12-26T14:43:34.739Z,11.73
2022-12-26T14:46:01.039Z,11.72
2022-12-26T14:48:27.336Z,11.79
2022-12-26T14:50:53.597Z,11.82
2022-12-26T14:53:19.862Z,11.77
2022-12-26T14:55:46.127Z,11.92
2022-12-26T14:58:12.381Z,11.93
2022-12-26T15:00:38.639Z,11.97
2022-12-26T15:03:04.925Z,11.94
2022-12-26T15:05:31.175Z,11.98
2022-12-26T15:07:57.416Z,12.01
2022-12-26T15:10:23.681Z,11.86
2022-12-26T15:12:56.724Z,11.84
2022-12-26T15:15:24.954Z,11.89
2022-12-26T15:17:51.225Z,11.88
2022-12-26T15:20:17.478Z,11.85
2022-12-26T15:22:43.715Z,11.85
2022-12-26T15:25:19.281Z,11.86
2022-12-26T15:27:46.048Z,11.72
2022-12-26T15:30:12.321Z,11.65
2022-12-26T15:32:38.625Z,11.60
2022-12-26T15:35:04.861Z,11.69
2022-12-26T15:37:31.136Z,11.67
2022-12-26T15:39:57.385Z,11.69
2022-12-26T15:42:23.629Z,11.46
2022-12-26T15:44:49.889Z,11.43
2022-12-26T15:47:16.127Z,11.55
2022-12-26T15:49:42.372Z,11.32
2022-12-26T15:52:08.626Z,11.07
2022-12-26T15:54:34.902Z,11.06
2022-12-26T15:57:01.136Z,11.21
2022-12-26T15:59:27.387Z,11.14
2022-12-26T16:01:53.704Z,11.13
2022-12-26T16:04:20.034Z,11.13
2022-12-26T16:06:46.274Z,11.02
2022-12-26T16:09:12.533Z,10.93
2022-12-26T16:11:38.812Z,10.68
2022-12-26T16:14:05.061Z,10.64
2022-12-26T16:16:31.300Z,10.88
2022-12-26T16:18:57.601Z,10.93
2022-12-26T16:21:23.865Z,11.06
2022-12-26T16:23:50.125Z,11.11
2022-12-26T16:26:16.373Z,11.09
2022-12-26T16:28:42.654Z,11.21
2022-12-26T16:31:08.943Z,10.90
2022-12-26T16:33:35.226Z,11.05
2022-12-26T16:36:01.520Z,11.15
2022-12-26T16:38:27.801Z,11.19
2022-12-26T16:40:54.065Z,11.33
2022-12-26T16:43:20.422Z,11.23
2022-12-26T16:45:46.672Z,11.27
2022-12-26T16:48:12.912Z,11.10
2022-12-26T16:50:39.177Z,11.08
2022-12-26T16:53:05.423Z,11.04
2022-12-26T16:55:31.688Z,10.91
2022-12-26T16:57:57.934Z,10.80
2022-12-26T17:00:24.202Z,10.71
2022-12-26T17:02:50.580Z,10.65
2022-12-26T17:05:16.841Z,10.70
2022-12-26T17:07:43.106Z,10.71
2022-12-26T17:10:13.817Z,10.91
2022-12-26T17:12:40.232Z,10.91
2022-12-26T17:15:06.472Z,10.98
2022-12-26T17:17:32.730Z,10.93
2022-12-26T17:19:59.014Z,10.77
2022-12-26T17:22:25.318Z,10.50
2022-12-26T17:24:51.571Z,10.71
2022-12-26T17:27:17.841Z,10.80
2022-12-26T17:29:44.086Z,10.45
2022-12-26T17:32:10.336Z,10.44
2022-12-26T17:34:36.575Z,10.51
2022-12-26T17:37:18.923Z,10.54
2022-12-26T17:39:45.884Z,10.63
2022-12-26T17:42:12.120Z,10.75
2022-12-26T17:44:38.384Z,10.80
2022-12-26T17:47:04.621Z,10.96
2022-12-26T17:49:30.863Z,11.06
2022-12-26T17:52:01.712Z,11.13
2022-12-26T17:54:28.484Z,11.13
2022-12-26T17:56:54.730Z,11.08
2022-12-26T17:59:20.970Z,11.07
2022-12-26T18:01:47.382Z,10.94
2022-12-26T18:04:13.745Z,10.83
2022-12-26T18:06:39.980Z,10.80
2022-12-26T18:09:06.225Z,10.78
2022-12-26T18:11:32.486Z,10.79
2022-12-26T18:13:58.736Z,11.00
2022-12-26T18:16:25.032Z,10.94
2022-12-26T18:18:51.328Z,10.96
2022-12-26T18:21:17.578Z,10.97
2022-12-26T18:23:43.814Z,10.97
2022-12-26T18:26:10.071Z,11.04
2022-12-26T18:28:36.317Z,11.20
2022-12-26T18:31:02.558Z,11.25
2022-12-26T18:33:28.813Z,11.31
2022-12-26T18:35:55.064Z,11.39
2022-12-26T18:38:21.310Z,11.34
2022-12-26T18:40:47.559Z,11.23
2022-12-26T18:43:13.808Z,11.13
2022-12-26T18:45:40.125Z,11.06
2022-12-26T18:48:06.371Z,10.98
2022-12-26T18:50:32.631Z,11.09
2022-12-26T18:52:58.895Z,10.98
2022-12-26T18:55:25.138Z,11.04
2022-12-26T18:57:51.367Z,11.05
2022-12-26T19:00:17.675Z,11.06
2022-12-26T19:02:43.927Z,10.94
2022-12-26T19:05:10.169Z,10.85
2022-12-26T19:07:36.451Z,11.11
2022-12-26T19:10:02.712Z,11.22
2022-12-26T19:12:28.948Z,11.22
2022-12-26T19:14:55.206Z,11.27
2022-12-26T19:17:21.449Z,11.29
2022-12-26T19:19:47.692Z,11.36
2022-12-26T19:22:13.935Z,11.43
2022-12-26T19:24:40.184Z,11.54
2022-12-26T19:27:06.442Z,11.48
2022-12-26T19:29:32.712Z,11.54
2022-12-26T19:31:58.996Z,11.41
2022-12-26T19:34:25.338Z,11.30
2022-12-26T19:36:51.602Z,11.27
2022-12-26T19:39:17.842Z,11.30
2022-12-26T19:41:44.081Z,11.30
2022-12-26T19:44:10.313Z,11.21
2022-12-26T19:46:36.551Z,11.26
2022-12-26T19:49:02.823Z,11.33
2022-12-26T19:51:29.085Z,11.30
2022-12-26T19:53:55.326Z,11.04
2022-12-26T19:56:21.583Z,11.06
2022-12-26T19:58:51.752Z,11.05
2022-12-26T20:01:20.961Z,10.97
2022-12-26T20:03:47.266Z,10.89
2022-12-26T20:06:13.504Z,10.90
2022-12-26T20:08:39.743Z,10.84
2022-12-26T20:11:06.005Z,10.68
2022-12-26T20:13:32.248Z,10.59
2022-12-26T20:15:58.518Z,10.51
2022-12-26T20:18:24.755Z,10.63
2022-12-26T20:20:50.983Z,10.55
2022-12-26T20:23:17.240Z,10.57
2022-12-26T20:25:43.489Z,10.68
2022-12-26T20:28:09.732Z,10.87
2022-12-26T20:30:36.013Z,10.93
2022-12-26T20:33:02.274Z,11.03
2022-12-26T20:35:28.520Z,11.12
2022-12-26T20:37:54.779Z,11.19
2022-12-26T20:40:21.049Z,11.25
2022-12-26T20:42:47.296Z,11.13
2022-12-26T20:45:13.546Z,11.08
2022-12-26T20:47:39.861Z,11.04
2022-12-26T20:50:06.104Z,10.93
2022-12-26T20:52:32.449Z,10.86
2022-12-26T20:54:58.684Z,10.96
2022-12-26T20:57:24.925Z,11.04
2022-12-26T20:59:51.188Z,11.13
2022-12-26T21:02:17.602Z,11.14
2022-12-26T21:04:43.993Z,11.06
2022-12-26T21:07:10.243Z,11.01
2022-12-26T21:09:41.000Z,10.94
2022-12-26T21:12:12.004Z,10.88
2022-12-26T21:14:38.239Z,10.85
2022-12-26T21:17:04.591Z,10.70
2022-12-26T21:19:30.851Z,10.87
2022-12-26T21:21:57.115Z,10.82
2022-12-26T21:24:23.400Z,11.03
2022-12-26T21:26:49.645Z,10.95
2022-12-26T21:29:15.919Z,10.71
2022-12-26T21:31:42.194Z,10.70
2022-12-26T21:34:08.453Z,10.74
2022-12-26T21:36:34.719Z,10.78
2022-12-26T21:39:00.957Z,10.75
2022-12-26T21:41:27.191Z,10.80
2022-12-26T21:43:53.449Z,10.86
2022-12-26T21:46:19.794Z,10.77
2022-12-26T21:48:46.082Z,10.97
2022-12-26T21:51:12.326Z,11.04
2022-12-26T21:53:38.576Z,11.19
2022-12-26T21:56:04.807Z,10.91
2022-12-26T21:58:31.045Z,10.84
2022-12-26T22:00:57.297Z,10.78
2022-12-26T22:03:23.608Z,10.82
2022-12-26T22:05:49.880Z,10.86
2022-12-26T22:08:16.113Z,10.91
2022-12-26T22:10:42.381Z,10.92
2022-12-26T22:13:08.637Z,10.90
2022-12-26T22:15:35.001Z,10.92
2022-12-26T22:18:01.311Z,10.83
2022-12-26T22:20:27.562Z,10.86
2022-12-26T22:22:53.809Z,10.72
2022-12-26T22:25:20.055Z,10.60
2022-12-26T22:27:46.312Z,10.51
2022-12-26T22:30:12.565Z,10.30
2022-12-26T22:32:38.889Z,10.28
2022-12-26T22:35:05.129Z,10.21
2022-12-26T22:37:31.373Z,10.20
2022-12-26T22:39:57.615Z,10.15
2022-12-26T22:42:23.901Z,10.19
2022-12-26T22:44:50.149Z,10.02
2022-12-26T22:47:16.391Z,10.00
2022-12-26T22:49:42.653Z,10.17
2022-12-26T22:52:15.547Z,10.19
2022-12-26T22:54:42.162Z,10.21
2022-12-26T22:57:08.403Z,10.24
2022-12-26T23:00:07.088Z,10.24
2022-12-26T23:02:21.074Z,10.21
2022-12-26T23:04:47.449Z,10.33
2022-12-26T23:07:13.707Z,10.32
2022-12-26T23:09:39.967Z,10.32
2022-12-26T23:12:06.208Z,10.32
2022-12-26T23:14:32.442Z,10.47
2022-12-26T23:16:58.727Z,10.48
2022-12-26T23:19:24.993Z,10.76
2022-12-26T23:21:51.223Z,10.63
2022-12-26T23:24:17.463Z,10.48
2022-12-26T23:26:43.724Z,10.32
2022-12-26T23:29:09.960Z,10.29
2022-12-26T23:31:36.265Z,10.33
2022-12-26T23:34:02.544Z,10.54
2022-12-26T23:36:28.779Z,10.48
2022-12-26T23:38:55.010Z,10.29
2022-12-26T23:41:21.251Z,10.20
2022-12-26T23:43:47.500Z,10.27
2022-12-26T23:46:13.841Z,10.09
2022-12-26T23:48:40.121Z,10.16
2022-12-26T23:51:06.397Z,10.23
2022-12-26T23:53:32.654Z,10.34
2022-12-26T23:55:58.936Z,10.33
2022-12-26T23:58:25.193Z,10.30
